sensor_id;sensor_type;location;lat;lon;timestamp;pressure;altitude;pressure_sealevel;temperature;humidity
59873;BME280;50750;51.636;4.948;2022-12-11T00:00:18;101291.20;;;8.34;60.77
59873;BME280;50750;51.636;4.948;2022-12-11T00:03:04;101290.16;;;8.34;60.68
59873;BME280;50750;51.636;4.948;2022-12-11T00:05:30;101291.91;;;8.34;60.75
59873;BME280;50750;51.636;4.948;2022-12-11T00:07:56;101289.29;;;8.34;60.69
59873;BME280;50750;51.636;4.948;2022-12-11T00:10:24;101294.34;;;8.35;60.74
59873;BME280;50750;51.636;4.948;2022-12-11T00:12:50;101290.33;;;8.34;60.64
59873;BME280;50750;51.636;4.948;2022-12-11T00:15:16;101288.40;;;8.35;60.72
59873;BME280;50750;51.636;4.948;2022-12-11T00:17:42;101283.52;;;8.35;60.67
59873;BME280;50750;51.636;4.948;2022-12-11T00:20:08;101285.78;;;8.35;60.71
59873;BME280;50750;51.636;4.948;2022-12-11T00:22:35;101286.13;;;8.36;60.71
59873;BME280;50750;51.636;4.948;2022-12-11T00:25:01;101285.61;;;8.35;60.66
59873;BME280;50750;51.636;4.948;2022-12-11T00:27:26;101285.62;;;8.35;60.67
59873;BME280;50750;51.636;4.948;2022-12-11T00:29:52;101288.40;;;8.36;60.71
59873;BME280;50750;51.636;4.948;2022-12-11T00:32:18;101285.78;;;8.35;60.75
59873;BME280;50750;51.636;4.948;2022-12-11T00:34:44;101284.02;;;8.35;60.75
59873;BME280;50750;51.636;4.948;2022-12-11T00:37:10;101289.27;;;8.35;60.70
59873;BME280;50750;51.636;4.948;2022-12-11T00:39:37;101286.48;;;8.35;60.73
59873;BME280;50750;51.636;4.948;2022-12-11T00:42:05;101280.02;;;8.36;60.75
59873;BME280;50750;51.636;4.948;2022-12-11T00:44:32;101277.06;;;8.36;60.66
59873;BME280;50750;51.636;4.948;2022-12-11T00:46:58;101280.38;;;8.36;60.79
59873;BME280;50750;51.636;4.948;2022-12-11T00:49:24;101276.88;;;8.36;60.72
59873;BME280;50750;51.636;4.948;2022-12-11T00:51:50;101277.23;;;8.36;60.65
59873;BME280;50750;51.636;4.948;2022-12-11T00:54:16;101275.30;;;8.36;60.72
59873;BME280;50750;51.636;4.948;2022-12-11T00:56:42;101278.98;;;8.36;60.64
59873;BME280;50750;51.636;4.948;2022-12-11T00:59:08;101280.38;;;8.36;60.79
59873;BME280;50750;51.636;4.948;2022-12-11T01:01:34;101282.29;;;8.36;60.63
59873;BME280;50750;51.636;4.948;2022-12-11T01:04:00;101280.36;;;8.36;60.69
59873;BME280;50750;51.636;4.948;2022-12-11T01:06:27;101285.44;;;8.36;60.66
59873;BME280;50750;51.636;4.948;2022-12-11T01:08:54;101282.30;;;8.36;60.58
59873;BME280;50750;51.636;4.948;2022-12-11T01:11:40;101283.51;;;8.36;60.82
59873;BME280;50750;51.636;4.948;2022-12-11T01:14:06;101279.67;;;8.36;60.69
59873;BME280;50750;51.636;4.948;2022-12-11T01:16:32;101280.55;;;8.36;60.75
59873;BME280;50750;51.636;4.948;2022-12-11T01:18:58;101281.08;;;8.36;60.66
59873;BME280;50750;51.636;4.948;2022-12-11T01:21:26;101277.92;;;8.36;60.65
59873;BME280;50750;51.636;4.948;2022-12-11T01:23:52;101280.89;;;8.35;60.65
59873;BME280;50750;51.636;4.948;2022-12-11T01:26:18;101278.10;;;8.36;60.64
59873;BME280;50750;51.636;4.948;2022-12-11T01:28:48;101281.92;;;8.36;60.69
59873;BME280;50750;51.636;4.948;2022-12-11T01:31:15;101284.02;;;8.36;60.66
59873;BME280;50750;51.636;4.948;2022-12-11T01:33:42;101285.08;;;8.36;60.67
59873;BME280;50750;51.636;4.948;2022-12-11T01:36:09;101283.33;;;8.36;60.71
59873;BME280;50750;51.636;4.948;2022-12-11T01:38:36;101281.58;;;8.37;60.82
59873;BME280;50750;51.636;4.948;2022-12-11T01:41:03;101278.79;;;8.36;60.63
59873;BME280;50750;51.636;4.948;2022-12-11T01:43:29;101277.58;;;8.36;60.58
59873;BME280;50750;51.636;4.948;2022-12-11T01:45:54;101274.95;;;8.37;60.62
59873;BME280;50750;51.636;4.948;2022-12-11T01:48:27;101272.35;;;8.36;60.73
59873;BME280;50750;51.636;4.948;2022-12-11T01:51:02;101268.67;;;8.36;60.60
59873;BME280;50750;51.636;4.948;2022-12-11T01:53:34;101262.73;;;8.36;60.77
59873;BME280;50750;51.636;4.948;2022-12-11T01:56:02;101260.98;;;8.36;60.67
59873;BME280;50750;51.636;4.948;2022-12-11T01:58:31;101265.36;;;8.37;60.65
59873;BME280;50750;51.636;4.948;2022-12-11T02:00:59;101267.27;;;8.37;60.65
59873;BME280;50750;51.636;4.948;2022-12-11T02:03:26;101270.41;;;8.36;60.66
59873;BME280;50750;51.636;4.948;2022-12-11T02:05:52;101271.63;;;8.37;60.71
59873;BME280;50750;51.636;4.948;2022-12-11T02:08:18;101267.63;;;8.36;60.60
59873;BME280;50750;51.636;4.948;2022-12-11T02:11:07;101271.80;;;8.37;60.76
59873;BME280;50750;51.636;4.948;2022-12-11T02:13:48;101271.80;;;8.36;60.69
59873;BME280;50750;51.636;4.948;2022-12-11T02:16:28;101271.46;;;8.37;60.71
59873;BME280;50750;51.636;4.948;2022-12-11T02:21:34;101270.23;;;8.37;60.74
59873;BME280;50750;51.636;4.948;2022-12-11T02:29:25;101266.74;;;8.37;60.70
59873;BME280;50750;51.636;4.948;2022-12-11T02:32:01;101262.55;;;8.37;60.65
59873;BME280;50750;51.636;4.948;2022-12-11T02:34:38;101260.81;;;8.37;60.58
59873;BME280;50750;51.636;4.948;2022-12-11T02:37:10;101262.72;;;8.37;60.61
59873;BME280;50750;51.636;4.948;2022-12-11T02:39:39;101264.30;;;8.37;60.63
59873;BME280;50750;51.636;4.948;2022-12-11T02:42:09;101263.24;;;8.37;60.54
59873;BME280;50750;51.636;4.948;2022-12-11T02:44:37;101259.41;;;8.37;60.61
59873;BME280;50750;51.636;4.948;2022-12-11T02:47:06;101256.78;;;8.37;60.63
59873;BME280;50750;51.636;4.948;2022-12-11T02:49:35;101255.91;;;8.37;60.67
59873;BME280;50750;51.636;4.948;2022-12-11T02:52:02;101254.33;;;8.37;60.64
59873;BME280;50750;51.636;4.948;2022-12-11T02:54:31;101257.30;;;8.38;60.58
59873;BME280;50750;51.636;4.948;2022-12-11T02:57:09;101260.09;;;8.37;60.79
59873;BME280;50750;51.636;4.948;2022-12-11T02:59:41;101258.88;;;8.37;60.64
59873;BME280;50750;51.636;4.948;2022-12-11T03:02:08;101258.35;;;8.38;60.65
59873;BME280;50750;51.636;4.948;2022-12-11T03:04:35;101262.88;;;8.38;60.73
59873;BME280;50750;51.636;4.948;2022-12-11T03:07:08;101255.92;;;8.37;60.69
59873;BME280;50750;51.636;4.948;2022-12-11T03:09:39;101254.33;;;8.38;60.67
59873;BME280;50750;51.636;4.948;2022-12-11T03:12:07;101248.23;;;8.38;60.61
59873;BME280;50750;51.636;4.948;2022-12-11T03:14:36;101244.39;;;8.37;60.65
59873;BME280;50750;51.636;4.948;2022-12-11T03:17:27;101238.80;;;8.37;60.69
59873;BME280;50750;51.636;4.948;2022-12-11T03:20:10;101234.10;;;8.37;60.69
59873;BME280;50750;51.636;4.948;2022-12-11T03:22:47;101237.41;;;8.37;60.64
59873;BME280;50750;51.636;4.948;2022-12-11T03:25:43;101238.46;;;8.37;60.57
59873;BME280;50750;51.636;4.948;2022-12-11T03:28:17;101236.03;;;8.37;60.68
59873;BME280;50750;51.636;4.948;2022-12-11T03:30:45;101230.63;;;8.37;60.70
59873;BME280;50750;51.636;4.948;2022-12-11T03:33:34;101231.13;;;8.37;60.63
59873;BME280;50750;51.636;4.948;2022-12-11T03:36:24;101229.56;;;8.37;60.60
59873;BME280;50750;51.636;4.948;2022-12-11T03:38:55;101231.48;;;8.37;60.56
59873;BME280;50750;51.636;4.948;2022-12-11T03:41:25;101230.79;;;8.37;60.56
59873;BME280;50750;51.636;4.948;2022-12-11T03:43:54;101229.75;;;8.37;60.54
59873;BME280;50750;51.636;4.948;2022-12-11T03:46:23;101227.81;;;8.37;60.62
59873;BME280;50750;51.636;4.948;2022-12-11T03:48:52;101224.50;;;8.37;60.61
59873;BME280;50750;51.636;4.948;2022-12-11T03:51:20;101225.02;;;8.36;60.58
59873;BME280;50750;51.636;4.948;2022-12-11T03:53:49;101222.41;;;8.37;60.60
59873;BME280;50750;51.636;4.948;2022-12-11T03:56:16;101217.88;;;8.37;60.65
59873;BME280;50750;51.636;4.948;2022-12-11T03:58:43;101211.77;;;8.37;60.59
59873;BME280;50750;51.636;4.948;2022-12-11T04:01:10;101208.45;;;8.37;60.66
59873;BME280;50750;51.636;4.948;2022-12-11T04:03:37;101204.78;;;8.37;60.68
59873;BME280;50750;51.636;4.948;2022-12-11T04:06:03;101203.05;;;8.37;60.53
59873;BME280;50750;51.636;4.948;2022-12-11T04:08:29;101200.95;;;8.37;60.65
59873;BME280;50750;51.636;4.948;2022-12-11T04:10:55;101203.20;;;8.37;60.66
59873;BME280;50750;51.636;4.948;2022-12-11T04:13:40;101199.89;;;8.37;60.53
59873;BME280;50750;51.636;4.948;2022-12-11T04:16:07;101197.10;;;8.37;60.57
59873;BME280;50750;51.636;4.948;2022-12-11T04:18:33;101198.69;;;8.37;60.51
59873;BME280;50750;51.636;4.948;2022-12-11T04:21:17;101204.44;;;8.37;60.52
59873;BME280;50750;51.636;4.948;2022-12-11T04:24:03;101208.64;;;8.37;60.56
59873;BME280;50750;51.636;4.948;2022-12-11T04:26:43;101208.82;;;8.36;60.58
59873;BME280;50750;51.636;4.948;2022-12-11T04:29:09;101206.20;;;8.37;60.52
59873;BME280;50750;51.636;4.948;2022-12-11T04:31:35;101208.98;;;8.36;60.52
59873;BME280;50750;51.636;4.948;2022-12-11T04:34:01;101210.23;;;8.36;60.47
59873;BME280;50750;51.636;4.948;2022-12-11T04:36:27;101206.02;;;8.36;60.49
59873;BME280;50750;51.636;4.948;2022-12-11T04:38:52;101206.55;;;8.36;60.34
59873;BME280;50750;51.636;4.948;2022-12-11T04:41:18;101205.69;;;8.36;60.54
59873;BME280;50750;51.636;4.948;2022-12-11T04:43:44;101201.15;;;8.36;60.43
59873;BME280;50750;51.636;4.948;2022-12-11T04:46:19;101197.13;;;8.36;60.38
59873;BME280;50750;51.636;4.948;2022-12-11T04:48:46;101194.88;;;8.36;60.34
59873;BME280;50750;51.636;4.948;2022-12-11T04:51:13;101191.72;;;8.36;60.41
59873;BME280;50750;51.636;4.948;2022-12-11T04:53:39;101195.92;;;8.35;60.35
59873;BME280;50750;51.636;4.948;2022-12-11T04:56:11;101195.73;;;8.36;60.56
59873;BME280;50750;51.636;4.948;2022-12-11T04:58:38;101193.81;;;8.36;60.41
59873;BME280;50750;51.636;4.948;2022-12-11T05:01:09;101196.27;;;8.36;60.40
59873;BME280;50750;51.636;4.948;2022-12-11T05:03:35;101193.65;;;8.36;60.44
59873;BME280;50750;51.636;4.948;2022-12-11T05:06:01;101191.55;;;8.36;60.38
59873;BME280;50750;51.636;4.948;2022-12-11T05:08:27;101186.85;;;8.36;60.42
59873;BME280;50750;51.636;4.948;2022-12-11T05:10:56;101186.50;;;8.36;60.47
59873;BME280;50750;51.636;4.948;2022-12-11T05:13:23;101180.73;;;8.36;60.42
59873;BME280;50750;51.636;4.948;2022-12-11T05:15:49;101185.09;;;8.36;60.48
59873;BME280;50750;51.636;4.948;2022-12-11T05:18:15;101184.58;;;8.36;60.50
59873;BME280;50750;51.636;4.948;2022-12-11T05:20:41;101183.86;;;8.36;60.39
59873;BME280;50750;51.636;4.948;2022-12-11T05:23:07;101187.02;;;8.36;60.39
59873;BME280;50750;51.636;4.948;2022-12-11T05:25:33;101186.50;;;8.36;60.47
59873;BME280;50750;51.636;4.948;2022-12-11T05:27:59;101189.80;;;8.36;60.34
59873;BME280;50750;51.636;4.948;2022-12-11T05:30:24;101188.59;;;8.36;60.44
59873;BME280;50750;51.636;4.948;2022-12-11T05:32:51;101191.39;;;8.36;60.49
59873;BME280;50750;51.636;4.948;2022-12-11T05:35:17;101186.83;;;8.36;60.64
59873;BME280;50750;51.636;4.948;2022-12-11T05:37:43;101185.09;;;8.36;60.66
59873;BME280;50750;51.636;4.948;2022-12-11T05:40:09;101185.27;;;8.36;60.49
59873;BME280;50750;51.636;4.948;2022-12-11T05:42:37;101186.33;;;8.36;60.59
59873;BME280;50750;51.636;4.948;2022-12-11T05:45:03;101189.63;;;8.36;60.54
59873;BME280;50750;51.636;4.948;2022-12-11T05:47:30;101195.40;;;8.36;60.54
59873;BME280;50750;51.636;4.948;2022-12-11T05:49:56;101194.87;;;8.35;60.57
59873;BME280;50750;51.636;4.948;2022-12-11T05:52:22;101195.04;;;8.35;60.42
59873;BME280;50750;51.636;4.948;2022-12-11T05:54:49;101194.87;;;8.35;60.37
59873;BME280;50750;51.636;4.948;2022-12-11T05:57:17;101195.74;;;8.36;60.32
59873;BME280;50750;51.636;4.948;2022-12-11T05:59:43;101192.42;;;8.36;60.45
59873;BME280;50750;51.636;4.948;2022-12-11T06:02:09;101190.15;;;8.35;60.39
59873;BME280;50750;51.636;4.948;2022-12-11T06:04:35;101190.16;;;8.35;60.41
59873;BME280;50750;51.636;4.948;2022-12-11T06:07:01;101192.42;;;8.35;60.52
59873;BME280;50750;51.636;4.948;2022-12-11T06:09:28;101195.39;;;8.36;60.41
59873;BME280;50750;51.636;4.948;2022-12-11T06:11:53;101196.27;;;8.36;60.37
59873;BME280;50750;51.636;4.948;2022-12-11T06:14:19;101185.44;;;8.35;60.50
59873;BME280;50750;51.636;4.948;2022-12-11T06:16:45;101186.50;;;8.36;60.38
59873;BME280;50750;51.636;4.948;2022-12-11T06:19:15;101181.08;;;8.35;60.31
59873;BME280;50750;51.636;4.948;2022-12-11T06:21:44;101183.52;;;8.36;60.47
59873;BME280;50750;51.636;4.948;2022-12-11T06:24:11;101186.66;;;8.36;60.34
59873;BME280;50750;51.636;4.948;2022-12-11T06:26:37;101183.17;;;8.36;60.44
59873;BME280;50750;51.636;4.948;2022-12-11T06:29:03;101183.88;;;8.36;60.44
59873;BME280;50750;51.636;4.948;2022-12-11T06:31:29;101184.58;;;8.36;60.39
59873;BME280;50750;51.636;4.948;2022-12-11T06:33:54;101180.55;;;8.36;60.40
59873;BME280;50750;51.636;4.948;2022-12-11T06:36:22;101181.95;;;8.36;60.36
59873;BME280;50750;51.636;4.948;2022-12-11T06:38:49;101182.99;;;8.36;60.36
59873;BME280;50750;51.636;4.948;2022-12-11T06:41:15;101183.88;;;8.36;60.39
59873;BME280;50750;51.636;4.948;2022-12-11T06:43:42;101181.79;;;8.36;60.41
59873;BME280;50750;51.636;4.948;2022-12-11T06:46:18;101177.77;;;8.36;60.42
59873;BME280;50750;51.636;4.948;2022-12-11T06:48:45;101172.19;;;8.35;60.38
59873;BME280;50750;51.636;4.948;2022-12-11T06:51:17;101176.03;;;8.36;60.40
59873;BME280;50750;51.636;4.948;2022-12-11T06:53:43;101174.80;;;8.35;60.37
59873;BME280;50750;51.636;4.948;2022-12-11T06:56:12;101173.93;;;8.36;60.36
59873;BME280;50750;51.636;4.948;2022-12-11T06:58:39;101172.17;;;8.35;60.48
59873;BME280;50750;51.636;4.948;2022-12-11T07:01:16;101169.40;;;8.36;60.42
59873;BME280;50750;51.636;4.948;2022-12-11T07:03:43;101171.31;;;8.36;60.44
59873;BME280;50750;51.636;4.948;2022-12-11T07:06:09;101172.17;;;8.36;60.49
59873;BME280;50750;51.636;4.948;2022-12-11T07:08:35;101174.45;;;8.35;60.46
59873;BME280;50750;51.636;4.948;2022-12-11T07:11:07;101180.03;;;8.35;60.50
59873;BME280;50750;51.636;4.948;2022-12-11T07:13:33;101176.72;;;8.35;60.46
59873;BME280;50750;51.636;4.948;2022-12-11T07:16:00;101181.95;;;8.36;60.51
59873;BME280;50750;51.636;4.948;2022-12-11T07:18:30;101182.30;;;8.36;60.45
59873;BME280;50750;51.636;4.948;2022-12-11T07:20:59;101178.80;;;8.36;60.41
59873;BME280;50750;51.636;4.948;2022-12-11T07:23:27;101181.08;;;8.36;60.47
59873;BME280;50750;51.636;4.948;2022-12-11T07:25:54;101182.30;;;8.36;60.22
59873;BME280;50750;51.636;4.948;2022-12-11T07:28:20;101186.48;;;8.36;60.37
59873;BME280;50750;51.636;4.948;2022-12-11T07:30:46;101191.02;;;8.36;60.42
59873;BME280;50750;51.636;4.948;2022-12-11T07:33:12;101191.36;;;8.36;60.41
59873;BME280;50750;51.636;4.948;2022-12-11T07:35:38;101188.41;;;8.36;60.46
59873;BME280;50750;51.636;4.948;2022-12-11T07:38:04;101188.41;;;8.36;60.36
59873;BME280;50750;51.636;4.948;2022-12-11T07:40:30;101187.17;;;8.37;60.42
59873;BME280;50750;51.636;4.948;2022-12-11T07:42:56;101189.27;;;8.36;60.45
59873;BME280;50750;51.636;4.948;2022-12-11T07:45:22;101187.35;;;8.36;60.40
59873;BME280;50750;51.636;4.948;2022-12-11T07:47:48;101190.14;;;8.37;60.39
59873;BME280;50750;51.636;4.948;2022-12-11T07:50:14;101193.97;;;8.37;60.36
59873;BME280;50750;51.636;4.948;2022-12-11T07:52:39;101196.23;;;8.37;60.45
59873;BME280;50750;51.636;4.948;2022-12-11T07:55:05;101196.42;;;8.37;60.41
59873;BME280;50750;51.636;4.948;2022-12-11T07:57:31;101195.19;;;8.37;60.43
59873;BME280;50750;51.636;4.948;2022-12-11T07:59:57;101191.71;;;8.37;60.45
59873;BME280;50750;51.636;4.948;2022-12-11T08:02:23;101189.08;;;8.37;60.39
59873;BME280;50750;51.636;4.948;2022-12-11T08:04:49;101189.26;;;8.37;60.40
59873;BME280;50750;51.636;4.948;2022-12-11T08:07:15;101188.38;;;8.37;60.41
59873;BME280;50750;51.636;4.948;2022-12-11T08:09:41;101187.70;;;8.37;60.34
59873;BME280;50750;51.636;4.948;2022-12-11T08:12:07;101189.25;;;8.37;60.37
59873;BME280;50750;51.636;4.948;2022-12-11T08:14:33;101193.96;;;8.37;60.35
59873;BME280;50750;51.636;4.948;2022-12-11T08:16:58;101195.89;;;8.37;60.26
59873;BME280;50750;51.636;4.948;2022-12-11T08:19:27;101191.18;;;8.37;60.44
59873;BME280;50750;51.636;4.948;2022-12-11T08:21:53;101184.38;;;8.37;60.39
59873;BME280;50750;51.636;4.948;2022-12-11T08:24:18;101182.63;;;8.37;60.46
59873;BME280;50750;51.636;4.948;2022-12-11T08:26:46;101184.73;;;8.37;60.52
59873;BME280;50750;51.636;4.948;2022-12-11T08:29:12;101185.06;;;8.37;60.41
59873;BME280;50750;51.636;4.948;2022-12-11T08:31:39;101187.34;;;8.37;60.44
59873;BME280;50750;51.636;4.948;2022-12-11T08:34:06;101191.00;;;8.37;60.46
59873;BME280;50750;51.636;4.948;2022-12-11T08:36:31;101195.02;;;8.37;60.47
59873;BME280;50750;51.636;4.948;2022-12-11T08:38:57;101197.45;;;8.38;60.44
59873;BME280;50750;51.636;4.948;2022-12-11T08:41:28;101197.11;;;8.37;60.53
59873;BME280;50750;51.636;4.948;2022-12-11T08:43:55;101195.20;;;8.37;60.52
59873;BME280;50750;51.636;4.948;2022-12-11T08:46:24;101194.48;;;8.37;60.48
59873;BME280;50750;51.636;4.948;2022-12-11T08:48:51;101192.23;;;8.37;60.44
59873;BME280;50750;51.636;4.948;2022-12-11T08:51:20;101195.72;;;8.37;60.43
59873;BME280;50750;51.636;4.948;2022-12-11T08:53:47;101195.19;;;8.37;60.47
59873;BME280;50750;51.636;4.948;2022-12-11T08:56:18;101196.94;;;8.37;60.45
59873;BME280;50750;51.636;4.948;2022-12-11T08:58:45;101195.20;;;8.36;60.51
59873;BME280;50750;51.636;4.948;2022-12-11T09:01:17;101192.92;;;8.37;60.44
59873;BME280;50750;51.636;4.948;2022-12-11T09:03:43;101191.38;;;8.36;60.35
59873;BME280;50750;51.636;4.948;2022-12-11T09:06:12;101187.36;;;8.36;60.48
59873;BME280;50750;51.636;4.948;2022-12-11T09:08:39;101187.00;;;8.37;60.49
59873;BME280;50750;51.636;4.948;2022-12-11T09:11:07;101187.00;;;8.37;60.42
59873;BME280;50750;51.636;4.948;2022-12-11T09:13:34;101188.38;;;8.37;60.45
59873;BME280;50750;51.636;4.948;2022-12-11T09:16:03;101185.95;;;8.37;60.44
59873;BME280;50750;51.636;4.948;2022-12-11T09:18:30;101185.76;;;8.37;60.54
59873;BME280;50750;51.636;4.948;2022-12-11T09:21:10;101186.28;;;8.37;60.47
59873;BME280;50750;51.636;4.948;2022-12-11T09:23:36;101188.91;;;8.38;60.48
59873;BME280;50750;51.636;4.948;2022-12-11T09:26:04;101186.29;;;8.37;60.48
59873;BME280;50750;51.636;4.948;2022-12-11T09:28:30;101187.49;;;8.37;60.31
59873;BME280;50750;51.636;4.948;2022-12-11T09:30:56;101182.43;;;8.38;60.46
59873;BME280;50750;51.636;4.948;2022-12-11T09:33:23;101184.70;;;8.38;60.38
59873;BME280;50750;51.636;4.948;2022-12-11T09:35:59;101186.45;;;8.38;60.37
59873;BME280;50750;51.636;4.948;2022-12-11T09:38:25;101184.18;;;8.38;60.39
59873;BME280;50750;51.636;4.948;2022-12-11T09:40:52;101184.71;;;8.38;60.47
59873;BME280;50750;51.636;4.948;2022-12-11T09:43:41;101185.59;;;8.37;60.48
59873;BME280;50750;51.636;4.948;2022-12-11T09:46:13;101185.23;;;8.38;60.41
59873;BME280;50750;51.636;4.948;2022-12-11T09:48:45;101186.64;;;8.37;60.50
59873;BME280;50750;51.636;4.948;2022-12-11T09:51:17;101183.15;;;8.37;60.53
59873;BME280;50750;51.636;4.948;2022-12-11T09:53:47;101183.67;;;8.37;60.37
59873;BME280;50750;51.636;4.948;2022-12-11T09:56:20;101184.19;;;8.37;60.38
59873;BME280;50750;51.636;4.948;2022-12-11T10:07:15;101181.40;;;8.38;60.37
59873;BME280;50750;51.636;4.948;2022-12-11T10:09:51;101178.79;;;8.37;60.42
59873;BME280;50750;51.636;4.948;2022-12-11T10:17:24;101172.86;;;8.37;60.53
59873;BME280;50750;51.636;4.948;2022-12-11T10:19:52;101178.09;;;8.37;60.37
59873;BME280;50750;51.636;4.948;2022-12-11T10:22:23;101175.83;;;8.37;60.44
59873;BME280;50750;51.636;4.948;2022-12-11T10:24:56;101180.01;;;8.37;60.56
59873;BME280;50750;51.636;4.948;2022-12-11T10:27:31;101173.89;;;8.38;60.50
59873;BME280;50750;51.636;4.948;2022-12-11T10:30:19;101169.36;;;8.37;60.42
59873;BME280;50750;51.636;4.948;2022-12-11T10:35:47;101163.96;;;8.37;60.42
59873;BME280;50750;51.636;4.948;2022-12-11T10:40:54;101152.77;;;8.37;60.42
59873;BME280;50750;51.636;4.948;2022-12-11T10:43:40;101150.00;;;8.37;60.42
59873;BME280;50750;51.636;4.948;2022-12-11T10:46:18;101152.45;;;8.37;60.46
59873;BME280;50750;51.636;4.948;2022-12-11T10:48:53;101154.35;;;8.37;60.51
59873;BME280;50750;51.636;4.948;2022-12-11T10:51:21;101157.32;;;8.37;60.45
59873;BME280;50750;51.636;4.948;2022-12-11T10:53:51;101156.44;;;8.38;60.49
59873;BME280;50750;51.636;4.948;2022-12-11T10:56:25;101154.35;;;8.37;60.39
59873;BME280;50750;51.636;4.948;2022-12-11T10:58:52;101156.09;;;8.38;60.43
59873;BME280;50750;51.636;4.948;2022-12-11T11:01:21;101153.98;;;8.38;60.47
59873;BME280;50750;51.636;4.948;2022-12-11T11:04:14;101155.21;;;8.38;60.42
59873;BME280;50750;51.636;4.948;2022-12-11T11:06:43;101153.65;;;8.38;60.38
59873;BME280;50750;51.636;4.948;2022-12-11T11:09:29;101151.56;;;8.38;60.46
59873;BME280;50750;51.636;4.948;2022-12-11T11:11:55;101151.56;;;8.38;60.40
59873;BME280;50750;51.636;4.948;2022-12-11T11:14:21;101149.28;;;8.38;60.48
59873;BME280;50750;51.636;4.948;2022-12-11T11:16:49;101151.39;;;8.38;60.30
59873;BME280;50750;51.636;4.948;2022-12-11T11:19:25;101151.04;;;8.38;60.44
59873;BME280;50750;51.636;4.948;2022-12-11T11:22:15;101147.03;;;8.38;60.41
59873;BME280;50750;51.636;4.948;2022-12-11T11:24:57;101143.89;;;8.39;60.41
59873;BME280;50750;51.636;4.948;2022-12-11T11:27:34;101140.75;;;8.39;60.27
59873;BME280;50750;51.636;4.948;2022-12-11T11:30:16;101139.17;;;8.39;60.30
59873;BME280;50750;51.636;4.948;2022-12-11T11:32:43;101133.41;;;8.39;60.42
59873;BME280;50750;51.636;4.948;2022-12-11T11:37:36;101135.85;;;8.40;60.33
59873;BME280;50750;51.636;4.948;2022-12-11T11:40:24;101135.14;;;8.42;60.33
59873;BME280;50750;51.636;4.948;2022-12-11T11:43:14;101133.57;;;8.42;60.36
59873;BME280;50750;51.636;4.948;2022-12-11T11:45:52;101134.08;;;8.42;60.28
59873;BME280;50750;51.636;4.948;2022-12-11T11:51:26;101132.17;;;8.42;60.25
59873;BME280;50750;51.636;4.948;2022-12-11T11:53:57;101131.29;;;8.42;60.29
59873;BME280;50750;51.636;4.948;2022-12-11T11:56:27;101129.88;;;8.42;60.21
59873;BME280;50750;51.636;4.948;2022-12-11T12:01:27;101130.39;;;8.43;60.23
59873;BME280;50750;51.636;4.948;2022-12-11T12:03:54;101130.40;;;8.43;60.25
59873;BME280;50750;51.636;4.948;2022-12-11T12:06:41;101131.27;;;8.43;60.18
59873;BME280;50750;51.636;4.948;2022-12-11T12:17:55;101113.27;;;8.44;60.34
59873;BME280;50750;51.636;4.948;2022-12-11T12:28:38;101101.94;;;8.44;60.13
59873;BME280;50750;51.636;4.948;2022-12-11T12:47:41;101103.48;;;8.45;60.18
59873;BME280;50750;51.636;4.948;2022-12-11T12:50:16;101101.75;;;8.45;60.19
59873;BME280;50750;51.636;4.948;2022-12-11T12:52:43;101102.27;;;8.45;60.16
59873;BME280;50750;51.636;4.948;2022-12-11T12:57:49;101100.67;;;8.45;60.22
59873;BME280;50750;51.636;4.948;2022-12-11T13:00:37;101101.20;;;8.45;60.06
59873;BME280;50750;51.636;4.948;2022-12-11T13:03:21;101097.52;;;8.46;60.20
59873;BME280;50750;51.636;4.948;2022-12-11T13:05:57;101095.44;;;8.46;60.22
59873;BME280;50750;51.636;4.948;2022-12-11T13:08:30;101094.39;;;8.46;60.13
59873;BME280;50750;51.636;4.948;2022-12-11T13:11:05;101095.25;;;8.46;60.14
59873;BME280;50750;51.636;4.948;2022-12-11T13:13:42;101094.20;;;8.47;60.20
59873;BME280;50750;51.636;4.948;2022-12-11T13:18:46;101092.63;;;8.47;60.04
59873;BME280;50750;51.636;4.948;2022-12-11T13:21:31;101092.98;;;8.47;60.26
59873;BME280;50750;51.636;4.948;2022-12-11T13:26:46;101100.14;;;8.47;60.15
59873;BME280;50750;51.636;4.948;2022-12-11T13:32:18;101098.20;;;8.47;60.02
59873;BME280;50750;51.636;4.948;2022-12-11T13:34:57;101096.99;;;8.47;60.16
59873;BME280;50750;51.636;4.948;2022-12-11T13:37:33;101093.67;;;8.48;60.04
59873;BME280;50750;51.636;4.948;2022-12-11T13:40:05;101095.43;;;8.47;60.00
59873;BME280;50750;51.636;4.948;2022-12-11T13:42:36;101094.89;;;8.47;60.10
59873;BME280;50750;51.636;4.948;2022-12-11T13:45:06;101096.64;;;8.47;60.05
59873;BME280;50750;51.636;4.948;2022-12-11T13:47:34;101100.30;;;8.48;59.93
59873;BME280;50750;51.636;4.948;2022-12-11T13:50:27;101102.91;;;8.48;60.06
59873;BME280;50750;51.636;4.948;2022-12-11T13:52:54;101105.16;;;8.48;60.02
59873;BME280;50750;51.636;4.948;2022-12-11T13:55:27;101109.36;;;8.49;60.02
59873;BME280;50750;51.636;4.948;2022-12-11T13:57:55;101108.65;;;8.49;60.10
59873;BME280;50750;51.636;4.948;2022-12-11T14:00:27;101106.73;;;8.49;60.05
59873;BME280;50750;51.636;4.948;2022-12-11T14:02:55;101105.86;;;8.49;59.97
59873;BME280;50750;51.636;4.948;2022-12-11T14:05:22;101106.20;;;8.49;59.92
59873;BME280;50750;51.636;4.948;2022-12-11T14:07:52;101104.45;;;8.50;59.93
59873;BME280;50750;51.636;4.948;2022-12-11T14:10:39;101100.46;;;8.48;58.90
59873;BME280;50750;51.636;4.948;2022-12-11T14:13:13;101106.84;;;8.43;57.45
59873;BME280;50750;51.636;4.948;2022-12-11T14:15:44;101111.58;;;8.41;57.42
59873;BME280;50750;51.636;4.948;2022-12-11T14:18:20;101112.29;;;8.40;57.62
59873;BME280;50750;51.636;4.948;2022-12-11T14:20:58;101114.40;;;8.39;57.94
59873;BME280;50750;51.636;4.948;2022-12-11T14:23:30;101114.92;;;8.38;58.23
59873;BME280;50750;51.636;4.948;2022-12-11T14:25:57;101118.75;;;8.38;58.47
59873;BME280;50750;51.636;4.948;2022-12-11T14:28:26;101126.59;;;8.38;58.52
59873;BME280;50750;51.636;4.948;2022-12-11T14:30:57;101128.52;;;8.38;58.85
59873;BME280;50750;51.636;4.948;2022-12-11T14:33:30;101128.00;;;8.38;58.86